createdAt,value
2019-04-03T00:02:07.213Z,7.58
2019-04-03T00:07:11.383Z,7.52
2019-04-03T00:12:15.426Z,7.50
2019-04-03T00:17:19.547Z,7.51
2019-04-03T00:22:23.594Z,7.54
2019-04-03T00:27:27.657Z,7.57
2019-04-03T00:32:31.675Z,7.55
2019-04-03T00:37:35.782Z,7.51
2019-04-03T00:42:39.847Z,7.45
2019-04-03T00:47:43.944Z,7.47
2019-04-03T00:52:47.988Z,7.51
2019-04-03T00:57:54.785Z,7.74
2019-04-03T01:02:59.569Z,7.82
2019-04-03T01:08:03.669Z,7.93
2019-04-03T01:13:07.734Z,8.07
2019-04-03T01:18:12.680Z,8.15
2019-04-03T01:23:16.748Z,8.16
2019-04-03T01:28:20.759Z,8.16
2019-04-03T01:33:24.823Z,8.07
2019-04-03T01:38:28.922Z,8.00
2019-04-03T01:43:33.246Z,7.94
2019-04-03T01:48:37.292Z,8.06
2019-04-03T01:53:41.347Z,8.06
2019-04-03T01:58:45.973Z,7.90
2019-04-03T02:03:50.029Z,7.70
2019-04-03T02:08:54.092Z,7.61
2019-04-03T02:13:58.193Z,7.53
2019-04-03T02:19:02.243Z,7.57
2019-04-03T02:24:06.566Z,7.64
2019-04-03T02:29:10.653Z,7.55
2019-04-03T02:34:14.700Z,7.74
2019-04-03T02:39:18.792Z,7.91
2019-04-03T02:44:22.800Z,7.74
2019-04-03T02:49:26.905Z,7.42
2019-04-03T02:54:35.807Z,7.19
2019-04-03T02:59:38.582Z,7.10
2019-04-03T03:04:42.905Z,6.96
2019-04-03T03:09:47.778Z,7.01
2019-04-03T03:14:52.999Z,6.87
2019-04-03T03:19:59.668Z,6.74
2019-04-03T03:25:04.237Z,6.77
2019-04-03T03:30:30.317Z,6.69
2019-04-03T03:35:20.080Z,6.78
2019-04-03T03:40:21.151Z,6.99
2019-04-03T03:45:27.526Z,6.86
2019-04-03T03:50:35.869Z,6.65
2019-04-03T03:55:40.838Z,6.54
2019-04-03T04:00:45.984Z,6.47
2019-04-03T04:05:53.893Z,6.52
2019-04-03T04:10:59.509Z,6.60
2019-04-03T04:16:04.370Z,6.68
2019-04-03T04:21:11.603Z,6.70
2019-04-03T04:26:15.428Z,6.71
2019-04-03T04:31:19.460Z,6.61
2019-04-03T04:36:24.306Z,6.56
2019-04-03T04:41:28.998Z,6.53
2019-04-03T04:46:33.315Z,6.51
2019-04-03T04:51:37.345Z,6.68
2019-04-03T04:56:41.445Z,6.69
2019-04-03T05:01:48.456Z,6.65
2019-04-03T05:06:51.415Z,6.79
2019-04-03T05:11:55.960Z,6.99
2019-04-03T05:17:00.055Z,7.05
2019-04-03T05:22:04.106Z,7.12
2019-04-03T05:27:08.438Z,7.21
2019-04-03T05:32:12.814Z,7.37
2019-04-03T05:37:20.016Z,7.50
2019-04-03T05:42:23.730Z,7.72
2019-04-03T05:47:27.799Z,8.02
2019-04-03T05:52:33.168Z,8.51
2019-04-03T05:57:37.543Z,8.97
2019-04-03T06:02:41.826Z,9.43
2019-04-03T06:07:48.475Z,10.75
2019-04-03T06:12:51.882Z,11.41
2019-04-03T06:17:55.972Z,11.06
2019-04-03T06:22:59.983Z,11.31
2019-04-03T06:28:04.009Z,11.38
2019-04-03T06:33:08.581Z,11.99
2019-04-03T06:38:12.695Z,12.26
2019-04-03T06:43:17.884Z,12.32
2019-04-03T06:48:22.897Z,12.21
2019-04-03T06:53:28.349Z,12.56
2019-04-03T06:58:38.930Z,12.74
2019-04-03T07:03:39.123Z,12.89
2019-04-03T07:08:43.203Z,12.92
2019-04-03T07:13:47.546Z,12.84
2019-04-03T07:18:51.639Z,13.17
2019-04-03T07:23:55.964Z,13.10
2019-04-03T07:28:59.975Z,13.18
2019-04-03T07:34:04.042Z,13.24
2019-04-03T07:39:10.593Z,13.39
2019-04-03T07:44:14.277Z,13.40
2019-04-03T07:49:18.425Z,13.98
2019-04-03T07:54:23.060Z,14.17
2019-04-03T07:59:28.279Z,14.66
2019-04-03T08:04:32.336Z,14.44
2019-04-03T08:09:36.408Z,14.57
2019-04-03T08:14:41.201Z,14.91
2019-04-03T08:19:46.408Z,14.85
2019-04-03T08:24:53.056Z,15.00
2019-04-03T08:29:56.218Z,15.19
2019-04-03T08:35:03.730Z,15.03
2019-04-03T08:40:07.005Z,15.13
2019-04-03T08:45:11.522Z,15.23
2019-04-03T08:50:15.601Z,15.29
2019-04-03T08:55:19.657Z,15.55
2019-04-03T09:00:23.984Z,16.00
2019-04-03T09:05:28.448Z,16.22
2019-04-03T09:10:36.345Z,16.34
2019-04-03T09:15:38.475Z,16.74
2019-04-03T09:20:43.700Z,16.63
2019-04-03T09:25:48.211Z,16.52
2019-04-03T09:30:53.996Z,16.81
2019-04-03T09:35:59.453Z,18.36
2019-04-03T09:41:04.042Z,19.60
2019-04-03T09:46:08.101Z,20.95
2019-04-03T09:51:12.155Z,21.53
2019-04-03T09:56:16.494Z,22.06
2019-04-03T10:01:20.580Z,22.58
2019-04-03T10:06:24.671Z,22.26
2019-04-03T10:11:29.047Z,22.33
2019-04-03T10:16:35.202Z,21.10
2019-04-03T10:21:38.841Z,20.77
2019-04-03T10:26:42.831Z,20.87
2019-04-03T10:31:46.875Z,20.76
2019-04-03T10:36:50.958Z,21.56
2019-04-03T10:41:55.090Z,22.17
2019-04-03T10:46:59.192Z,22.43
2019-04-03T10:52:03.461Z,21.68
2019-04-03T10:57:07.801Z,20.93
2019-04-03T11:02:12.345Z,21.49
2019-04-03T11:07:16.574Z,19.99
2019-04-03T11:12:21.326Z,20.10
2019-04-03T11:17:26.081Z,21.17
2019-04-03T11:22:39.727Z,21.43
2019-04-03T11:27:45.013Z,21.70
2019-04-03T11:32:42.162Z,21.27
2019-04-03T11:37:46.369Z,20.78
2019-04-03T11:42:50.368Z,20.48
2019-04-03T11:47:54.563Z,19.86
2019-04-03T11:53:01.486Z,20.23
2019-04-03T11:58:04.685Z,20.66
2019-04-03T12:03:10.812Z,20.63
2019-04-03T12:08:14.411Z,20.63
2019-04-03T12:13:20.953Z,20.28
2019-04-03T12:18:24.253Z,20.25
2019-04-03T12:23:28.312Z,20.56
2019-04-03T12:28:32.594Z,21.07
2019-04-03T12:33:36.682Z,21.27
2019-04-03T12:38:40.880Z,22.00
2019-04-03T12:43:45.132Z,21.90
2019-04-03T12:48:50.954Z,22.39
2019-04-03T12:53:54.902Z,21.63
2019-04-03T12:58:59.205Z,21.72
2019-04-03T13:04:03.598Z,20.92
2019-04-03T13:09:09.764Z,20.48
2019-04-03T13:14:24.158Z,20.38
2019-04-03T13:19:20.361Z,20.22
2019-04-03T13:24:24.718Z,20.09
2019-04-03T13:29:28.718Z,20.10
2019-04-03T13:34:33.119Z,20.26
2019-04-03T13:39:37.174Z,20.48
2019-04-03T13:44:41.898Z,21.40
2019-04-03T13:49:49.348Z,22.33
2019-04-03T13:54:52.320Z,22.63
2019-04-03T14:00:01.087Z,21.05
2019-04-03T14:05:02.065Z,20.77
2019-04-03T14:10:06.753Z,20.29
2019-04-03T14:15:11.174Z,20.27
2019-04-03T14:20:15.466Z,19.91
2019-04-03T14:25:22.505Z,20.05
2019-04-03T14:30:25.798Z,20.90
2019-04-03T14:35:51.876Z,21.39
2019-04-03T14:40:36.080Z,21.01
2019-04-03T14:45:40.577Z,20.23
2019-04-03T14:50:44.607Z,20.62
2019-04-03T14:55:50.063Z,20.83
2019-04-03T15:00:54.527Z,20.70
2019-04-03T15:05:59.144Z,20.69
2019-04-03T15:11:03.806Z,20.73
2019-04-03T15:16:07.914Z,21.54
2019-04-03T15:21:12.301Z,22.21
2019-04-03T15:26:16.378Z,22.47
2019-04-03T15:31:23.195Z,23.03
2019-04-03T15:36:26.342Z,22.04
2019-04-03T15:41:33.057Z,21.79
2019-04-03T15:46:36.195Z,21.74
2019-04-03T15:51:40.521Z,21.75
2019-04-03T15:56:45.842Z,21.63
2019-04-03T16:01:50.663Z,21.32
2019-04-03T16:06:54.699Z,20.94
2019-04-03T16:12:00.460Z,20.42
2019-04-03T16:17:04.514Z,20.38
2019-04-03T16:22:08.615Z,20.36
2019-04-03T16:27:13.107Z,20.32
2019-04-03T16:32:17.221Z,20.25
2019-04-03T16:37:22.711Z,20.20
2019-04-03T16:42:27.139Z,19.77
2019-04-03T16:47:31.742Z,19.22
2019-04-03T16:52:39.160Z,18.78
2019-04-03T16:57:45.109Z,18.41
2019-04-03T17:02:49.947Z,18.12
2019-04-03T17:07:55.167Z,17.85
2019-04-03T17:13:00.093Z,17.63
2019-04-03T17:18:04.583Z,17.44
2019-04-03T17:23:10.950Z,17.20
2019-04-03T17:28:15.319Z,17.07
2019-04-03T17:33:19.756Z,17.00
2019-04-03T17:38:24.305Z,16.75
2019-04-03T17:43:28.722Z,16.48
2019-04-03T17:48:33.132Z,16.20
2019-04-03T17:53:37.421Z,16.10
2019-04-03T17:58:42.328Z,15.92
2019-04-03T18:03:47.852Z,15.80
2019-04-03T18:08:53.079Z,15.71
2019-04-03T18:13:57.762Z,15.51
2019-04-03T18:19:04.576Z,15.31
2019-04-03T18:24:08.552Z,15.27
2019-04-03T18:29:12.848Z,15.14
2019-04-03T18:34:19.829Z,14.88
2019-04-03T18:39:26.612Z,14.75
2019-04-03T18:44:33.862Z,14.69
2019-04-03T18:49:40.859Z,14.76
2019-04-03T18:54:46.805Z,14.63
2019-04-03T18:59:56.206Z,14.30
2019-04-03T19:05:02.422Z,14.09
2019-04-03T19:10:08.169Z,14.08
2019-04-03T19:15:13.141Z,14.00
2019-04-03T19:20:18.112Z,13.85
2019-04-03T19:25:22.470Z,13.73
2019-04-03T19:30:29.907Z,13.63
2019-04-03T19:35:36.075Z,13.59
2019-04-03T19:40:42.915Z,13.40
2019-04-03T19:45:51.824Z,13.50
2019-04-03T19:50:58.903Z,13.62
2019-04-03T19:56:03.880Z,13.69
2019-04-03T20:01:09.664Z,13.63
2019-04-03T20:06:18.232Z,13.53
2019-04-03T20:11:25.205Z,13.59
2019-04-03T20:16:30.189Z,13.62
2019-04-03T20:21:35.933Z,13.59
2019-04-03T20:26:40.432Z,13.46
2019-04-03T20:31:44.688Z,13.35
2019-04-03T20:36:51.770Z,13.43
2019-04-03T20:41:55.538Z,13.21
2019-04-03T20:47:00.150Z,13.00
2019-04-03T20:52:05.886Z,12.88
2019-04-03T20:57:10.202Z,12.71
2019-04-03T21:02:14.826Z,12.74
2019-04-03T21:07:19.158Z,12.61
2019-04-03T21:12:23.318Z,12.42
2019-04-03T21:17:27.442Z,12.31
2019-04-03T21:22:32.049Z,12.28
2019-04-03T21:27:36.045Z,12.21
2019-04-03T21:32:40.088Z,12.10
2019-04-03T21:37:44.153Z,11.99
2019-04-03T21:42:48.186Z,11.88
2019-04-03T21:47:52.745Z,11.91
2019-04-03T21:52:56.775Z,11.98
2019-04-03T21:58:00.893Z,12.13
2019-04-03T22:03:06.790Z,12.26
2019-04-03T22:08:10.735Z,12.33
2019-04-03T22:13:15.079Z,12.26
2019-04-03T22:18:19.373Z,12.11
2019-04-03T22:23:23.458Z,11.93
2019-04-03T22:28:27.508Z,11.78
2019-04-03T22:33:31.852Z,11.71
2019-04-03T22:38:37.179Z,11.73
2019-04-03T22:43:41.629Z,11.55
2019-04-03T22:48:45.689Z,11.34
2019-04-03T22:53:49.774Z,11.26
2019-04-03T22:58:53.865Z,11.40
2019-04-03T23:03:57.899Z,11.37
2019-04-03T23:09:01.988Z,11.26
2019-04-03T23:14:06.823Z,11.14
2019-04-03T23:19:11.624Z,10.74
2019-04-03T23:24:15.719Z,10.59
2019-04-03T23:29:19.810Z,10.49
2019-04-03T23:34:23.902Z,10.44
2019-04-03T23:39:28.443Z,10.32
2019-04-03T23:44:32.446Z,10.11
2019-04-03T23:49:36.517Z,10.13
2019-04-03T23:54:40.682Z,10.14
2019-04-03T23:59:44.986Z,10.07
